This is the latest recevied weather packets stored in our database for station/object WD4HMR. If no packets are shown the sender has not sent any weather packets the latest 10 day(s).
| Time | Temp. | Humidity | Pressure | Rain* | Wind** | Luminosity | Snow |
|---|---|---|---|---|---|---|---|
| 1777520851 | 17.78° C | 96% | 1011.2 hPa | 0 mm | - | - | - |
| 1777520573 | 17.78° C | 96% | 1011.4 hPa | 0 mm | - | - | - |
| 1777520372 | 17.78° C | 96% | 1011.4 hPa | 0 mm | - | - | - |
| 1777520040 | 17.78° C | 95% | 1011.8 hPa | 0 mm | - | - | - |
| 1777519891 | 17.78° C | 96% | 1011.7 hPa | 0 mm | - | - | - |
| 1777519620 | 17.78° C | 97% | 1011.8 hPa | 0 mm | - | - | - |
| 1777519412 | 17.78° C | 96% | 1012 hPa | 0 mm | - | - | - |
| 1777519200 | 17.78° C | 95% | 1012.5 hPa | 0 mm | - | - | - |
| 1777518932 | 17.78° C | 95% | 1012.6 hPa | 0 mm | - | - | - |
| 1777518779 | 17.78° C | 96% | 1012.3 hPa | 0 mm | - | - | - |
| 1777518452 | 18.33° C | 95% | 1012.3 hPa | 0 mm | - | - | - |
| 1777518359 | 18.33° C | 94% | 1012.3 hPa | 0 mm | - | - | - |
| 1777517972 | 18.33° C | 95% | 1012.2 hPa | 0 mm | - | - | - |
| 1777517939 | 18.33° C | 95% | 1012.3 hPa | 0 mm | - | - | - |
| 1777517518 | 18.89° C | 93% | 1013.3 hPa | 0 mm | - | - | - |
| 1777517491 | 18.89° C | 93% | 1013.3 hPa | 0 mm | - | - | - |
| 1777517099 | 19.44° C | 87% | 1013.6 hPa | 0 mm | - | - | - |
| 1777517013 | 19.44° C | 86% | 1013.7 hPa | 0 mm | - | - | - |
| 1777516679 | 19.44° C | 95% | 1011.7 hPa | 0 mm | - | - | - |
| 1777516259 | 20° C | 96% | 1011.7 hPa | 0 mm | - | - | - |
| 1777515715 | 20.56° C | 94% | 1011.9 hPa | 0 mm | - | - | - |
| 1777515572 | 20.56° C | 92% | 1012.1 hPa | 0 mm | - | - | - |
| 1777515295 | 21.11° C | 90% | 1012.5 hPa | 0 mm | - | - | - |
| 1777515091 | 21.11° C | 91% | 1012.4 hPa | 0 mm | - | - | - |
| 1777514875 | 21.67° C | 89% | 1012.8 hPa | 0 mm | - | - | - |
* Rain latest hour (hover to see other rain measurements)
** Current wind speed in m/s (hover to see current wind gust speed)